createdAt,value
2023-04-15T00:02:18.440Z,9.70
2023-04-15T00:04:46.784Z,10.88
2023-04-15T00:07:14.915Z,8.07
2023-04-15T00:09:42.852Z,6.65
2023-04-15T00:12:10.615Z,8.13
2023-04-15T00:14:39.644Z,5.85
2023-04-15T00:17:07.442Z,6.28
2023-04-15T00:19:35.137Z,5.75
2023-04-15T00:22:02.762Z,6.63
2023-04-15T00:24:32.742Z,8.55
2023-04-15T00:27:00.555Z,6.10
2023-04-15T00:29:29.910Z,7.13
2023-04-15T00:31:58.925Z,7.00
2023-04-15T00:34:26.556Z,6.35
2023-04-15T00:36:54.182Z,6.35
2023-04-15T00:39:22.767Z,11.00
2023-04-15T00:41:50.477Z,7.25
2023-04-15T00:44:18.934Z,6.53
2023-04-15T00:46:46.891Z,7.47
2023-04-15T00:49:17.644Z,7.55
2023-04-15T00:51:46.193Z,6.60
2023-04-15T00:54:13.981Z,6.35
2023-04-15T00:56:42.064Z,8.68
2023-04-15T00:59:10.507Z,5.90
2023-04-15T01:01:38.451Z,7.35
2023-04-15T01:04:07.109Z,8.13
2023-04-15T01:06:36.364Z,8.15
2023-04-15T01:09:04.235Z,8.93
2023-04-15T01:11:33.595Z,6.50
2023-04-15T01:14:01.313Z,6.10
2023-04-15T01:16:29.740Z,4.68
2023-04-15T01:18:57.955Z,6.32
2023-04-15T01:21:25.747Z,7.78
2023-04-15T01:23:56.878Z,7.25
2023-04-15T01:26:26.545Z,6.25
2023-04-15T01:28:54.207Z,6.93
2023-04-15T01:31:22.226Z,5.70
2023-04-15T01:33:49.883Z,5.82
2023-04-15T01:36:19.946Z,5.70
2023-04-15T01:38:48.444Z,4.68
2023-04-15T01:41:16.393Z,3.90
2023-04-15T01:43:45.751Z,5.40
2023-04-15T01:46:13.431Z,8.65
2023-04-15T01:48:41.196Z,8.00
2023-04-15T01:51:08.786Z,5.68
2023-04-15T01:53:36.470Z,4.38
2023-04-15T01:56:04.394Z,6.63
2023-04-15T01:58:34.360Z,4.45
2023-04-15T02:01:04.087Z,3.72
2023-04-15T02:03:31.863Z,3.40
2023-04-15T02:05:59.633Z,8.68
2023-04-15T02:08:27.279Z,4.70
2023-04-15T02:10:55.069Z,4.20
2023-04-15T02:13:22.687Z,4.32
2023-04-15T02:15:50.781Z,6.25
2023-04-15T02:18:19.877Z,4.70
2023-04-15T02:20:48.314Z,4.68
2023-04-15T02:23:16.061Z,4.75
2023-04-15T02:25:43.682Z,3.90
2023-04-15T02:28:22.016Z,4.90
2023-04-15T02:30:50.961Z,3.13
2023-04-15T02:33:19.923Z,3.50
2023-04-15T02:35:47.655Z,4.60
2023-04-15T02:38:16.867Z,3.95
2023-04-15T02:40:45.518Z,6.05
2023-04-15T02:43:13.185Z,3.63
2023-04-15T02:45:41.306Z,6.85
2023-04-15T02:48:08.989Z,5.55
2023-04-15T02:50:39.903Z,5.85
2023-04-15T02:53:08.930Z,6.00
2023-04-15T02:55:37.640Z,5.47
2023-04-15T02:58:05.433Z,4.65
2023-04-15T03:00:33.034Z,7.40
2023-04-15T03:03:04.225Z,7.63
2023-04-15T03:05:32.061Z,8.40
2023-04-15T03:08:01.920Z,6.68
2023-04-15T03:10:29.690Z,9.02
2023-04-15T03:12:57.818Z,10.75
2023-04-15T03:15:25.488Z,6.93
2023-04-15T03:17:53.216Z,10.50
2023-04-15T03:20:21.055Z,11.18
2023-04-15T03:22:49.335Z,12.38
2023-04-15T03:25:18.519Z,10.25
2023-04-15T03:27:46.597Z,13.43
2023-04-15T03:30:14.665Z,10.70
2023-04-15T03:32:42.287Z,12.45
2023-04-15T03:35:10.492Z,12.25
2023-04-15T03:37:40.048Z,13.80
2023-04-15T03:40:08.787Z,12.65
2023-04-15T03:42:37.782Z,13.60
2023-04-15T03:45:05.818Z,13.40
2023-04-15T03:47:33.437Z,13.98
2023-04-15T03:50:01.222Z,14.80
2023-04-15T03:52:28.916Z,13.32
2023-04-15T03:54:57.011Z,12.73
2023-04-15T03:57:25.090Z,12.07
2023-04-15T03:59:54.197Z,12.85
2023-04-15T04:02:23.631Z,13.63
2023-04-15T04:04:51.486Z,14.82
2023-04-15T04:07:19.641Z,13.65
2023-04-15T04:09:47.639Z,16.52
2023-04-15T04:12:15.270Z,19.13
2023-04-15T04:14:44.508Z,17.77
2023-04-15T04:17:13.684Z,19.83
2023-04-15T04:19:41.438Z,15.70
2023-04-15T04:22:09.077Z,15.43
2023-04-15T04:24:36.857Z,18.50
2023-04-15T04:27:04.579Z,15.68
2023-04-15T04:29:32.220Z,16.85
2023-04-15T04:31:59.915Z,16.75
2023-04-15T04:34:29.003Z,17.88
2023-04-15T04:36:56.750Z,18.30
2023-04-15T04:39:24.717Z,18.33
2023-04-15T04:41:52.569Z,17.35
2023-04-15T04:44:20.173Z,19.05
2023-04-15T04:46:48.033Z,17.08
2023-04-15T04:49:15.781Z,23.70
2023-04-15T04:51:44.933Z,18.98
2023-04-15T04:54:12.553Z,22.52
2023-04-15T04:56:40.363Z,22.30
2023-04-15T04:59:08.406Z,16.65
2023-04-15T05:01:36.208Z,23.95
2023-04-15T05:04:05.295Z,22.17
2023-04-15T05:06:44.872Z,18.38
2023-04-15T05:09:14.129Z,18.77
2023-04-15T05:11:41.848Z,16.38
2023-04-15T05:14:09.462Z,15.27
2023-04-15T05:16:37.088Z,18.63
2023-04-15T05:19:05.138Z,19.35
2023-04-15T05:21:32.874Z,15.23
2023-04-15T05:24:00.666Z,15.48
2023-04-15T05:26:32.268Z,17.75
2023-04-15T05:29:00.293Z,11.38
2023-04-15T05:31:28.706Z,19.77
2023-04-15T05:33:56.780Z,15.02
2023-04-15T05:36:24.401Z,14.00
2023-04-15T05:38:52.150Z,14.75
2023-04-15T05:41:20.089Z,10.13
2023-04-15T05:43:49.033Z,10.85
2023-04-15T05:46:17.014Z,9.27
2023-04-15T05:48:44.681Z,9.90
2023-04-15T05:51:12.321Z,7.38
2023-04-15T05:53:41.248Z,10.35
2023-04-15T05:56:09.500Z,6.25
2023-04-15T05:58:37.163Z,6.57
2023-04-15T06:01:06.465Z,7.20
2023-04-15T06:03:35.021Z,4.13
2023-04-15T06:06:03.684Z,3.30
2023-04-15T06:08:31.535Z,4.10
2023-04-15T06:11:00.092Z,3.17
2023-04-15T06:13:28.440Z,4.55
2023-04-15T06:15:56.163Z,5.70
2023-04-15T06:18:25.328Z,6.95
2023-04-15T06:20:53.098Z,2.42
2023-04-15T06:23:21.833Z,5.80
2023-04-15T06:25:49.615Z,4.22
2023-04-15T06:28:17.256Z,3.20
2023-04-15T06:30:45.105Z,3.00
2023-04-15T06:33:13.357Z,5.93
2023-04-15T06:35:42.346Z,5.50
2023-04-15T06:38:10.002Z,5.88
2023-04-15T06:40:37.849Z,4.07
2023-04-15T06:43:05.951Z,3.25
2023-04-15T06:45:35.737Z,4.78
2023-04-15T06:48:03.510Z,4.97
2023-04-15T06:50:31.264Z,5.20
2023-04-15T06:53:00.268Z,5.22
2023-04-15T06:55:27.984Z,4.93
2023-04-15T06:57:55.667Z,4.28
2023-04-15T07:00:23.372Z,3.08
2023-04-15T07:02:51.485Z,5.13
2023-04-15T07:05:28.537Z,10.68
2023-04-15T07:07:56.383Z,6.00
2023-04-15T07:10:25.791Z,3.78
2023-04-15T07:12:53.595Z,8.50
2023-04-15T07:15:21.331Z,4.93
2023-04-15T07:17:48.990Z,6.30
2023-04-15T07:20:17.996Z,6.45
2023-04-15T07:22:45.652Z,6.45
2023-04-15T07:25:13.380Z,7.05
2023-04-15T07:27:42.774Z,10.27
2023-04-15T07:30:12.667Z,7.45
2023-04-15T07:32:40.558Z,5.55
2023-04-15T07:35:08.601Z,6.07
2023-04-15T07:37:36.398Z,8.07
2023-04-15T07:40:07.018Z,6.15
2023-04-15T07:42:34.819Z,6.22
2023-04-15T07:45:04.312Z,6.63
2023-04-15T07:47:32.004Z,4.18
2023-04-15T07:50:00.218Z,10.43
2023-04-15T07:52:27.841Z,8.73
2023-04-15T07:54:55.780Z,9.02
2023-04-15T07:57:23.580Z,9.02
2023-04-15T07:59:52.211Z,8.85
2023-04-15T08:02:21.865Z,9.77
2023-04-15T08:04:49.730Z,10.45
2023-04-15T08:07:18.215Z,10.57
2023-04-15T08:09:46.450Z,12.43
2023-04-15T08:12:14.980Z,11.63
2023-04-15T08:14:42.635Z,10.65
2023-04-15T08:17:10.449Z,11.77
2023-04-15T08:19:39.432Z,7.00
2023-04-15T08:22:10.469Z,8.43
2023-04-15T08:24:45.715Z,7.03
2023-04-15T08:27:13.622Z,12.23
2023-04-15T08:29:41.771Z,9.95
2023-04-15T08:32:09.878Z,13.15
2023-04-15T08:34:38.870Z,6.55
2023-04-15T08:37:07.319Z,11.40
2023-04-15T08:39:35.202Z,11.45
2023-04-15T08:42:03.579Z,12.32
2023-04-15T08:44:32.238Z,12.18
2023-04-15T08:47:03.535Z,11.45
2023-04-15T08:49:31.576Z,14.38
2023-04-15T08:52:01.630Z,14.85
2023-04-15T08:54:29.514Z,10.65
2023-04-15T08:56:59.592Z,13.50
2023-04-15T08:59:28.034Z,14.70
2023-04-15T09:01:56.772Z,11.45
2023-04-15T09:04:24.516Z,9.40
2023-04-15T09:06:52.710Z,12.80
2023-04-15T09:09:22.712Z,12.25
2023-04-15T09:11:51.580Z,11.32
2023-04-15T09:14:19.533Z,10.30
2023-04-15T09:17:00.073Z,11.55
2023-04-15T09:19:29.060Z,12.88
2023-04-15T09:21:59.117Z,16.17
2023-04-15T09:24:37.482Z,11.48
2023-04-15T09:27:05.497Z,12.27
2023-04-15T09:29:33.411Z,12.68
2023-04-15T09:32:10.918Z,11.52
2023-04-15T09:34:38.770Z,12.80
2023-04-15T09:37:07.830Z,8.27
2023-04-15T09:39:50.613Z,8.65
2023-04-15T09:42:24.176Z,10.90
2023-04-15T09:44:52.693Z,10.50
2023-04-15T09:47:30.337Z,13.02
2023-04-15T09:49:58.523Z,12.38
2023-04-15T09:52:26.462Z,11.00
2023-04-15T09:54:56.584Z,12.05
2023-04-15T09:57:25.084Z,7.53
2023-04-15T09:59:53.246Z,8.23
2023-04-15T10:02:21.571Z,10.20
2023-04-15T10:04:50.004Z,12.25
2023-04-15T10:07:20.660Z,10.20
2023-04-15T10:09:49.438Z,11.32
2023-04-15T10:12:20.217Z,11.32
2023-04-15T10:14:49.961Z,13.15
2023-04-15T10:17:19.246Z,12.63
2023-04-15T10:19:47.890Z,10.73
2023-04-15T10:22:15.709Z,11.90
2023-04-15T10:24:45.426Z,14.65
2023-04-15T10:27:13.228Z,13.07
2023-04-15T10:29:42.348Z,10.40
2023-04-15T10:32:10.423Z,12.50
2023-04-15T10:34:38.484Z,17.80
2023-04-15T10:37:06.817Z,13.40
2023-04-15T10:39:42.031Z,9.30
2023-04-15T10:44:37.757Z,18.77
2023-04-15T10:47:08.308Z,9.23
2023-04-15T10:49:35.938Z,9.68
2023-04-15T10:52:04.382Z,9.80
2023-04-15T10:54:32.589Z,9.73
2023-04-15T10:57:08.714Z,11.60
2023-04-15T10:59:37.709Z,10.68
2023-04-15T11:02:06.795Z,7.88
2023-04-15T11:04:55.106Z,7.90
2023-04-15T11:07:35.724Z,5.65
2023-04-15T11:10:12.484Z,5.00
2023-04-15T11:12:40.234Z,3.75
2023-04-15T11:15:30.827Z,4.72
2023-04-15T11:17:58.562Z,6.25
2023-04-15T11:20:27.679Z,7.43
2023-04-15T11:23:13.989Z,3.92
2023-04-15T11:25:43.879Z,7.05
2023-04-15T11:28:12.286Z,5.03
2023-04-15T11:30:41.432Z,4.90
2023-04-15T11:33:09.822Z,6.22
2023-04-15T11:35:41.012Z,4.80
2023-04-15T11:38:12.176Z,5.95
2023-04-15T11:40:40.359Z,5.40
2023-04-15T11:43:08.826Z,6.20
2023-04-15T11:45:36.870Z,8.07
2023-04-15T11:48:13.328Z,6.65
2023-04-15T11:50:42.639Z,7.40
2023-04-15T11:53:11.686Z,6.05
2023-04-15T11:55:43.975Z,5.97
2023-04-15T11:58:14.448Z,6.47
2023-04-15T12:00:47.608Z,6.47
2023-04-15T12:03:19.476Z,5.15
2023-04-15T12:06:07.896Z,4.32
2023-04-15T12:08:55.128Z,3.17
2023-04-15T12:11:28.605Z,4.13
2023-04-15T12:13:56.775Z,5.07
2023-04-15T12:16:24.957Z,8.25
2023-04-15T12:18:53.393Z,6.32
2023-04-15T12:21:22.835Z,6.88
2023-04-15T12:23:50.915Z,2.63
2023-04-15T12:26:19.236Z,4.45
2023-04-15T12:28:47.097Z,8.43
2023-04-15T12:31:15.612Z,6.28
2023-04-15T12:33:43.576Z,3.20
2023-04-15T12:36:11.240Z,5.18
2023-04-15T12:38:40.255Z,1.83
2023-04-15T12:41:08.035Z,3.88
2023-04-15T12:43:36.068Z,3.75
2023-04-15T12:46:04.877Z,5.35
2023-04-15T12:48:33.318Z,3.38
2023-04-15T12:51:05.125Z,5.75
2023-04-15T12:53:33.454Z,4.55
2023-04-15T12:56:03.783Z,4.65
2023-04-15T12:58:31.581Z,3.15
2023-04-15T13:00:59.237Z,3.50
2023-04-15T13:03:26.969Z,4.35
2023-04-15T13:05:54.773Z,4.72
2023-04-15T13:08:22.479Z,4.50
2023-04-15T13:10:50.151Z,8.60
2023-04-15T13:13:19.191Z,6.72
2023-04-15T13:15:47.317Z,5.03
2023-04-15T13:18:15.048Z,6.40
2023-04-15T13:20:42.774Z,5.82
2023-04-15T13:23:10.820Z,4.82
2023-04-15T13:25:38.499Z,7.05
2023-04-15T13:28:06.198Z,4.15
2023-04-15T13:30:35.223Z,3.72
2023-04-15T13:33:03.533Z,7.47
2023-04-15T13:35:31.250Z,5.72
2023-04-15T13:37:58.945Z,6.65
2023-04-15T13:40:26.840Z,2.70
2023-04-15T13:42:54.510Z,6.22
2023-04-15T13:45:22.250Z,3.92
2023-04-15T13:47:51.422Z,4.97
2023-04-15T13:50:19.267Z,5.47
2023-04-15T13:52:46.949Z,4.50
2023-04-15T13:55:20.345Z,5.15
2023-04-15T13:57:50.479Z,7.77
2023-04-15T14:00:18.398Z,4.72
2023-04-15T14:02:46.349Z,3.28
2023-04-15T14:05:15.549Z,3.63
2023-04-15T14:07:43.387Z,5.22
2023-04-15T14:10:11.087Z,6.97
2023-04-15T14:12:39.183Z,4.82
2023-04-15T14:15:07.324Z,4.90
2023-04-15T14:17:35.202Z,4.25
2023-04-15T14:20:02.946Z,5.40
2023-04-15T14:22:32.008Z,3.65
2023-04-15T14:25:00.196Z,10.52
2023-04-15T14:27:28.410Z,4.35
2023-04-15T14:29:56.063Z,3.97
2023-04-15T14:32:24.602Z,4.10
2023-04-15T14:34:52.401Z,3.50
2023-04-15T14:37:22.063Z,7.50
2023-04-15T14:39:51.197Z,8.25
2023-04-15T14:42:18.881Z,7.63
2023-04-15T14:44:46.849Z,8.32
2023-04-15T14:47:14.537Z,8.68
2023-04-15T14:49:42.230Z,6.13
2023-04-15T14:52:10.015Z,9.65
2023-04-15T14:54:37.742Z,12.70
2023-04-15T14:57:07.770Z,11.75
2023-04-15T14:59:35.425Z,12.43
2023-04-15T15:02:03.124Z,16.73
2023-04-15T15:04:33.038Z,9.95
2023-04-15T15:07:01.002Z,9.45
2023-04-15T15:09:29.067Z,12.35
2023-04-15T15:11:57.059Z,13.23
2023-04-15T15:14:26.322Z,11.63
2023-04-15T15:16:53.929Z,10.30
2023-04-15T15:19:21.852Z,9.93
2023-04-15T15:21:49.458Z,10.93
2023-04-15T15:24:17.111Z,8.25
2023-04-15T15:26:44.802Z,7.25
2023-04-15T15:29:12.421Z,9.70
2023-04-15T15:31:42.013Z,6.45
2023-04-15T15:34:09.884Z,4.22
2023-04-15T15:36:37.540Z,4.28
2023-04-15T15:39:05.546Z,3.88
2023-04-15T15:41:33.830Z,7.63
2023-04-15T15:44:01.956Z,4.20
2023-04-15T15:46:31.559Z,5.28
2023-04-15T15:49:00.815Z,5.97
2023-04-15T15:51:30.469Z,6.55
2023-04-15T15:53:58.144Z,4.72
2023-04-15T15:56:26.996Z,5.90
2023-04-15T15:58:54.622Z,3.70
2023-04-15T16:01:22.528Z,1.60
2023-04-15T16:03:50.298Z,1.92
2023-04-15T16:06:19.461Z,3.17
2023-04-15T16:08:48.129Z,3.13
2023-04-15T16:11:16.786Z,5.03
2023-04-15T16:13:44.570Z,5.15
2023-04-15T16:16:12.461Z,4.63
2023-04-15T16:18:40.240Z,3.13
2023-04-15T16:21:07.962Z,7.30
2023-04-15T16:23:37.388Z,4.13
2023-04-15T16:26:05.297Z,4.28
2023-04-15T16:28:32.999Z,3.83
2023-04-15T16:31:00.719Z,3.90
2023-04-15T16:33:28.565Z,5.15
2023-04-15T16:35:58.164Z,2.20
2023-04-15T16:38:25.881Z,3.85
2023-04-15T16:40:57.898Z,4.70
2023-04-15T16:43:26.125Z,2.55
2023-04-15T16:45:53.783Z,1.50
2023-04-15T16:48:21.863Z,3.35
2023-04-15T16:50:49.806Z,4.07
2023-04-15T16:53:17.595Z,3.97
2023-04-15T16:55:45.254Z,5.07
2023-04-15T16:58:15.126Z,5.85
2023-04-15T17:00:42.872Z,4.28
2023-04-15T17:03:11.026Z,6.78
2023-04-15T17:05:39.424Z,11.50
2023-04-15T17:08:07.226Z,3.75
2023-04-15T17:10:34.981Z,5.60
2023-04-15T17:13:02.901Z,6.35
2023-04-15T17:15:32.228Z,4.45
2023-04-15T17:17:59.910Z,6.90
2023-04-15T17:20:27.610Z,3.63
2023-04-15T17:22:55.838Z,5.25
2023-04-15T17:25:24.218Z,7.72
2023-04-15T17:27:51.924Z,7.60
2023-04-15T17:30:20.345Z,8.73
2023-04-15T17:32:49.575Z,8.77
2023-04-15T17:35:17.307Z,9.27
2023-04-15T17:37:45.125Z,5.35
2023-04-15T17:40:13.861Z,7.28
2023-04-15T17:42:41.745Z,5.93
2023-04-15T17:45:10.053Z,4.22
2023-04-15T17:47:37.937Z,6.25
2023-04-15T17:50:08.043Z,8.55
2023-04-15T17:52:35.846Z,8.15
2023-04-15T17:55:07.086Z,8.60
2023-04-15T17:57:34.825Z,9.63
2023-04-15T18:00:02.509Z,9.18
2023-04-15T18:02:31.000Z,10.52
2023-04-15T18:04:59.540Z,9.70
2023-04-15T18:07:28.606Z,8.18
2023-04-15T18:09:56.534Z,7.20
2023-04-15T18:12:24.389Z,6.13
2023-04-15T18:14:52.081Z,10.88
2023-04-15T18:17:20.369Z,10.30
2023-04-15T18:19:48.250Z,9.52
2023-04-15T18:22:16.089Z,15.43
2023-04-15T18:24:45.098Z,13.10
2023-04-15T18:27:12.791Z,9.75
2023-04-15T18:29:40.506Z,9.20
2023-04-15T18:32:08.128Z,8.77
2023-04-15T18:34:35.731Z,11.27
2023-04-15T18:37:03.619Z,8.63
2023-04-15T18:39:31.833Z,6.22
2023-04-15T18:42:01.906Z,10.48
2023-04-15T18:44:29.582Z,6.22
2023-04-15T18:46:57.280Z,5.80
2023-04-15T18:49:27.144Z,6.50
2023-04-15T18:52:13.030Z,8.32
2023-04-15T18:57:09.588Z,9.00
2023-04-15T18:59:37.302Z,6.95
2023-04-15T19:02:07.378Z,12.25
2023-04-15T19:04:35.283Z,12.73
2023-04-15T19:07:03.069Z,5.95
2023-04-15T19:09:30.733Z,4.32
2023-04-15T19:11:58.379Z,6.78
2023-04-15T19:14:27.560Z,11.32
2023-04-15T19:16:55.202Z,11.90
2023-04-15T19:19:23.015Z,9.07
2023-04-15T19:21:51.085Z,8.40
2023-04-15T19:24:18.907Z,7.05
2023-04-15T19:26:48.507Z,12.68
2023-04-15T19:29:16.415Z,5.53
2023-04-15T19:31:49.977Z,9.77
2023-04-15T19:34:17.786Z,8.10
2023-04-15T19:36:45.481Z,6.95
2023-04-15T19:39:13.603Z,10.05
2023-04-15T19:41:41.373Z,9.07
2023-04-15T19:44:09.137Z,10.32
2023-04-15T19:46:37.102Z,12.68
2023-04-15T19:49:06.599Z,8.50
2023-04-15T19:51:34.818Z,6.78
2023-04-15T19:54:02.854Z,10.05
2023-04-15T19:56:32.392Z,10.35
2023-04-15T19:59:02.309Z,12.23
2023-04-15T20:01:30.147Z,7.65
2023-04-15T20:03:59.867Z,9.18
2023-04-15T20:06:35.818Z,18.73
2023-04-15T20:09:04.401Z,14.18
2023-04-15T20:12:10.039Z,10.48
2023-04-15T20:14:20.001Z,11.55
2023-04-15T20:16:48.924Z,16.00
2023-04-15T20:19:16.602Z,15.85
2023-04-15T20:21:45.628Z,12.48
2023-04-15T20:24:13.228Z,12.70
2023-04-15T20:26:40.913Z,18.00
2023-04-15T20:29:08.724Z,16.38
2023-04-15T20:31:36.528Z,14.18
2023-04-15T20:34:04.394Z,14.85
2023-04-15T20:36:32.564Z,14.02
2023-04-15T20:39:01.722Z,15.32
2023-04-15T20:41:29.429Z,17.70
2023-04-15T20:43:57.083Z,16.80
2023-04-15T20:46:27.300Z,21.52
2023-04-15T20:48:57.380Z,12.95
2023-04-15T20:51:25.082Z,14.23
2023-04-15T20:53:52.836Z,15.35
2023-04-15T20:56:22.305Z,18.02
2023-04-15T20:58:50.027Z,12.65
2023-04-15T21:01:17.816Z,16.95
2023-04-15T21:03:45.642Z,20.38
2023-04-15T21:06:13.484Z,18.00
2023-04-15T21:08:41.227Z,15.80
2023-04-15T21:11:08.981Z,18.40
2023-04-15T21:13:37.992Z,14.05
2023-04-15T21:16:05.978Z,18.90
2023-04-15T21:18:33.755Z,14.82
2023-04-15T21:21:01.988Z,21.27
2023-04-15T21:23:30.199Z,16.13
2023-04-15T21:25:58.415Z,17.60
2023-04-15T21:28:57.745Z,15.73
2023-04-15T21:31:26.821Z,20.63
2023-04-15T21:33:54.816Z,17.48
2023-04-15T21:36:33.762Z,18.88
2023-04-15T21:39:01.545Z,22.60
2023-04-15T21:41:29.225Z,15.27
2023-04-15T21:43:56.994Z,20.83
2023-04-15T21:46:35.023Z,19.88
2023-04-15T21:49:03.753Z,16.50
2023-04-15T21:51:31.596Z,21.13
2023-04-15T21:53:59.309Z,19.67
2023-04-15T21:56:27.121Z,13.75
2023-04-15T21:58:56.768Z,14.60
2023-04-15T22:01:24.719Z,16.23
2023-04-15T22:03:54.222Z,18.38
2023-04-15T22:06:22.169Z,17.95
2023-04-15T22:08:57.016Z,15.25
2023-04-15T22:11:37.557Z,11.00
2023-04-15T22:14:05.976Z,14.45
2023-04-15T22:16:33.814Z,24.95
2023-04-15T22:19:03.809Z,14.98
2023-04-15T22:21:31.760Z,17.20
2023-04-15T22:24:38.497Z,12.10
2023-04-15T22:26:47.011Z,12.35
2023-04-15T22:29:14.669Z,11.57
2023-04-15T22:31:42.641Z,12.00
2023-04-15T22:34:11.718Z,19.75
2023-04-15T22:36:39.351Z,14.60
2023-04-15T22:39:07.159Z,17.92
2023-04-15T22:41:35.164Z,13.75
2023-04-15T22:44:02.828Z,15.45
2023-04-15T22:46:30.501Z,14.70
2023-04-15T22:48:58.178Z,15.02
2023-04-15T22:51:28.080Z,13.27
2023-04-15T22:53:56.207Z,12.05
2023-04-15T22:56:24.392Z,10.60
2023-04-15T22:58:52.008Z,12.18
2023-04-15T23:01:20.783Z,12.25
2023-04-15T23:03:56.740Z,12.40
2023-04-15T23:06:28.181Z,14.88
2023-04-15T23:08:55.859Z,11.05
2023-04-15T23:11:23.473Z,11.20
2023-04-15T23:13:51.140Z,17.77
2023-04-15T23:16:18.902Z,11.95
2023-04-15T23:18:46.581Z,18.70
2023-04-15T23:21:14.246Z,20.35
2023-04-15T23:23:44.900Z,16.15
2023-04-15T23:26:12.675Z,19.13
2023-04-15T23:28:43.093Z,13.60
2023-04-15T23:31:10.773Z,13.38
2023-04-15T23:33:38.979Z,8.68
2023-04-15T23:36:07.001Z,11.25
2023-04-15T23:38:35.324Z,15.90
2023-04-15T23:41:04.351Z,9.27
2023-04-15T23:43:32.078Z,8.57
2023-04-15T23:45:59.668Z,10.82
2023-04-15T23:48:27.347Z,15.15
2023-04-15T23:50:55.066Z,14.38
2023-04-15T23:53:22.756Z,9.15
2023-04-15T23:55:50.581Z,7.43
2023-04-15T23:58:19.597Z,12.95
